Time,TemperatureF,DewpointF,PressureIn,WindDirection,WindDirectionDegrees,WindSpeedMPH,WindSpeedGustMPH,Humidity,HourlyPrecipIn,Conditions,Clouds,dailyrainin,SoftwareType,DateUTC
2013-04-10 00:03:00,72.9,62.1,29.66,SW,236,11.0,14.0,69,0.00,,,0.00,Wunderground v.1.15,2013-04-10 05:03:00,
2013-04-10 00:08:00,72.8,62.0,29.66,South,182,12.0,22.0,69,0.00,,,0.00,Wunderground v.1.15,2013-04-10 05:08:00,
2013-04-10 00:14:00,72.8,62.0,29.66,South,177,12.0,17.0,69,0.00,,,0.00,Wunderground v.1.15,2013-04-10 05:14:00,
2013-04-10 00:20:00,72.8,62.4,29.67,SSE,155,12.0,12.0,70,0.00,,,0.00,Wunderground v.1.15,2013-04-10 05:20:00,
2013-04-10 00:25:00,72.8,62.4,29.67,South,184,11.0,15.0,70,0.00,,,0.00,Wunderground v.1.15,2013-04-10 05:25:00,
2013-04-10 00:30:00,72.7,62.3,29.67,South,172,11.0,16.0,70,0.00,,,0.00,Wunderground v.1.15,2013-04-10 05:30:00,
2013-04-10 00:36:00,72.8,62.4,29.68,SE,131,12.0,17.0,70,0.00,,,0.00,Wunderground v.1.15,2013-04-10 05:36:00,
2013-04-10 00:42:00,72.7,62.3,29.67,SW,216,10.0,11.0,70,0.00,,,0.00,Wunderground v.1.15,2013-04-10 05:42:00,
2013-04-10 00:48:00,72.8,62.4,29.67,South,183,10.0,16.0,70,0.00,,,0.00,Wunderground v.1.15,2013-04-10 05:48:00,
2013-04-10 00:53:00,72.7,62.3,29.68,SSW,212,11.0,17.0,70,0.00,,,0.00,Wunderground v.1.15,2013-04-10 05:53:00,
2013-04-10 00:59:00,72.8,62.8,29.68,SSW,213,10.0,18.0,71,0.00,,,0.00,Wunderground v.1.15,2013-04-10 05:59:00,
2013-04-10 01:04:00,72.7,62.8,29.68,SSW,204,9.0,10.0,71,0.00,,,0.00,Wunderground v.1.15,2013-04-10 06:04:00,
2013-04-10 01:10:00,72.7,62.8,29.68,South,182,9.0,12.0,71,0.00,,,0.00,Wunderground v.1.15,2013-04-10 06:10:00,
2013-04-10 01:15:00,72.7,62.8,29.68,SSW,206,8.0,12.0,71,0.00,,,0.00,Wunderground v.1.15,2013-04-10 06:15:00,
2013-04-10 01:21:00,72.9,62.9,29.68,SE,130,10.0,11.0,71,0.00,,,0.00,Wunderground v.1.15,2013-04-10 06:21:00,
2013-04-10 01:26:00,72.9,62.9,29.68,SSW,207,11.0,15.0,71,0.00,,,0.00,Wunderground v.1.15,2013-04-10 06:26:00,
2013-04-10 01:31:00,72.9,63.3,29.68,South,181,10.0,10.0,72,0.00,,,0.00,Wunderground v.1.15,2013-04-10 06:31:00,
2013-04-10 01:37:00,72.9,63.3,29.67,SSW,212,8.0,10.0,72,0.00,,,0.00,Wunderground v.1.15,2013-04-10 06:37:00,
2013-04-10 01:42:00,72.9,63.3,29.67,South,175,8.0,10.0,72,0.00,,,0.00,Wunderground v.1.15,2013-04-10 06:42:00,
2013-04-10 01:48:00,72.9,63.3,29.67,SE,139,9.0,12.0,72,0.00,,,0.00,Wunderground v.1.15,2013-04-10 06:48:00,
2013-04-10 01:54:00,73.0,63.4,29.67,SSW,196,10.0,19.0,72,0.00,,,0.00,Wunderground v.1.15,2013-04-10 06:54:00,
2013-04-10 01:59:00,72.9,63.3,29.67,SSW,201,11.0,19.0,72,0.00,,,0.00,Wunderground v.1.15,2013-04-10 06:59:00,
2013-04-10 02:05:00,72.9,63.7,29.67,SSW,199,10.0,16.0,73,0.00,,,0.00,Wunderground v.1.15,2013-04-10 07:05:00,
2013-04-10 02:11:00,72.9,63.7,29.67,SSE,162,9.0,21.0,73,0.00,,,0.00,Wunderground v.1.15,2013-04-10 07:11:00,
2013-04-10 02:16:00,72.9,63.7,29.66,SSW,209,10.0,21.0,73,0.00,,,0.00,Wunderground v.1.15,2013-04-10 07:16:00,
2013-04-10 02:22:00,72.8,63.6,29.67,SSE,167,10.0,18.0,73,0.00,,,0.00,Wunderground v.1.15,2013-04-10 07:22:00,
2013-04-10 02:27:00,72.7,63.5,29.67,SSE,167,10.0,18.0,73,0.00,,,0.00,Wunderground v.1.15,2013-04-10 07:27:00,
2013-04-10 02:33:00,72.7,63.9,29.67,SSE,159,11.0,13.0,74,0.00,,,0.00,Wunderground v.1.15,2013-04-10 07:33:00,
2013-04-10 02:38:00,72.6,63.8,29.66,SSE,160,10.0,16.0,74,0.00,,,0.00,Wunderground v.1.15,2013-04-10 07:38:00,
2013-04-10 02:43:00,72.4,64.0,29.66,SSE,149,9.0,10.0,75,0.00,,,0.00,Wunderground v.1.15,2013-04-10 07:43:00,
2013-04-10 02:49:00,72.3,63.9,29.66,SSE,164,9.0,17.0,75,0.00,,,0.00,Wunderground v.1.15,2013-04-10 07:49:00,
2013-04-10 02:54:00,72.2,63.8,29.66,South,185,9.0,15.0,75,0.00,,,0.00,Wunderground v.1.15,2013-04-10 07:54:00,
2013-04-10 02:59:00,72.1,63.7,29.66,SW,215,9.0,15.0,75,0.00,,,0.00,Wunderground v.1.15,2013-04-10 07:59:00,
2013-04-10 03:04:00,72.1,64.1,29.66,SSE,147,10.0,14.0,76,0.00,,,0.00,Wunderground v.1.15,2013-04-10 08:04:00,
2013-04-10 03:09:00,72.0,64.0,29.66,South,176,10.0,14.0,76,0.00,,,0.00,Wunderground v.1.15,2013-04-10 08:09:00,
2013-04-10 03:15:00,72.0,64.0,29.66,South,189,11.0,15.0,76,0.00,,,0.00,Wunderground v.1.15,2013-04-10 08:15:00,
2013-04-10 03:20:00,72.0,64.0,29.66,South,174,11.0,16.0,76,0.00,,,0.00,Wunderground v.1.15,2013-04-10 08:20:00,
2013-04-10 03:26:00,72.0,64.0,29.66,SW,222,11.0,20.0,76,0.00,,,0.00,Wunderground v.1.15,2013-04-10 08:26:00,
2013-04-10 03:31:00,71.9,63.9,29.67,SSW,193,11.0,11.0,76,0.00,,,0.00,Wunderground v.1.15,2013-04-10 08:31:00,
2013-04-10 03:37:00,71.9,63.9,29.66,South,190,10.0,13.0,76,0.00,,,0.00,Wunderground v.1.15,2013-04-10 08:37:00,
2013-04-10 03:42:00,71.8,63.8,29.66,SSW,211,8.0,11.0,76,0.00,,,0.00,Wunderground v.1.15,2013-04-10 08:42:00,
2013-04-10 03:48:00,71.8,63.8,29.67,South,172,8.0,13.0,76,0.00,,,0.00,Wunderground v.1.15,2013-04-10 08:48:00,
2013-04-10 03:53:00,71.7,64.1,29.67,SW,219,7.0,8.0,77,0.00,,,0.00,Wunderground v.1.15,2013-04-10 08:53:00,
2013-04-10 03:59:00,71.6,64.0,29.67,South,188,5.0,9.0,77,0.00,,,0.00,Wunderground v.1.15,2013-04-10 08:59:00,
2013-04-10 04:05:00,71.5,63.9,29.67,South,176,4.0,8.0,77,0.00,,,0.00,Wunderground v.1.15,2013-04-10 09:05:00,
2013-04-10 04:10:00,71.3,63.3,29.67,WSW,248,3.0,3.0,76,0.00,,,0.00,Wunderground v.1.15,2013-04-10 09:10:00,
2013-04-10 04:16:00,70.6,62.7,29.67,West,260,2.0,6.0,76,0.00,,,0.00,Wunderground v.1.15,2013-04-10 09:16:00,
2013-04-10 04:22:00,69.6,62.1,29.67,NW,315,3.0,3.0,77,0.00,,,0.00,Wunderground v.1.15,2013-04-10 09:22:00,
2013-04-10 04:28:00,68.8,61.3,29.68,WNW,303,1.0,3.0,77,0.00,,,0.00,Wunderground v.1.15,2013-04-10 09:28:00,
2013-04-10 04:34:00,67.9,60.4,29.69,West,259,2.0,4.0,77,0.00,,,0.00,Wunderground v.1.15,2013-04-10 09:34:00,
2013-04-10 04:40:00,67.0,59.9,29.67,WNW,290,2.0,2.0,78,0.00,,,0.00,Wunderground v.1.15,2013-04-10 09:40:00,
2013-04-10 04:45:00,66.6,59.9,29.68,WSW,239,1.0,5.0,79,0.00,,,0.00,Wunderground v.1.15,2013-04-10 09:45:00,
2013-04-10 04:51:00,65.8,59.5,29.67,SW,223,2.0,2.0,80,0.00,,,0.00,Wunderground v.1.15,2013-04-10 09:51:00,
2013-04-10 04:56:00,65.6,59.6,29.68,SW,232,1.0,3.0,81,0.00,,,0.00,Wunderground v.1.15,2013-04-10 09:56:00,
2013-04-10 05:02:00,65.2,59.2,29.68,WSW,239,2.0,6.0,81,0.00,,,0.00,Wunderground v.1.15,2013-04-10 10:02:00,
2013-04-10 05:07:00,65.0,59.4,29.68,WNW,289,3.0,6.0,82,0.00,,,0.00,Wunderground v.1.15,2013-04-10 10:07:00,
2013-04-10 05:12:00,64.6,59.3,29.69,WNW,284,3.0,4.0,83,0.00,,,0.00,Wunderground v.1.15,2013-04-10 10:12:00,
2013-04-10 05:18:00,64.0,59.1,29.70,NW,317,2.0,4.0,84,0.00,,,0.00,Wunderground v.1.15,2013-04-10 10:18:00,
2013-04-10 05:23:00,63.1,58.5,29.69,WSW,256,3.0,4.0,85,0.00,,,0.00,Wunderground v.1.15,2013-04-10 10:23:00,
2013-04-10 05:29:00,62.4,57.8,29.68,WNW,290,3.0,5.0,85,0.00,,,0.00,Wunderground v.1.15,2013-04-10 10:29:00,
2013-04-10 05:35:00,61.4,57.2,29.69,NW,322,4.0,5.0,86,0.00,,,0.00,Wunderground v.1.15,2013-04-10 10:35:00,
2013-04-10 05:40:00,60.8,56.9,29.69,West,281,4.0,5.0,87,0.00,,,0.00,Wunderground v.1.15,2013-04-10 10:40:00,
2013-04-10 05:46:00,59.9,56.3,29.69,SW,234,3.0,5.0,88,0.00,,,0.00,Wunderground v.1.15,2013-04-10 10:46:00,
2013-04-10 05:52:00,58.6,55.1,29.70,WSW,251,2.0,7.0,88,0.00,,,0.00,Wunderground v.1.15,2013-04-10 10:52:00,
2013-04-10 05:57:00,57.8,54.6,29.70,WNW,301,2.0,7.0,89,0.00,,,0.00,Wunderground v.1.15,2013-04-10 10:57:00,
2013-04-10 06:02:00,57.3,54.4,29.70,WNW,284,3.0,3.0,90,0.00,,,0.00,Wunderground v.1.15,2013-04-10 11:02:00,
2013-04-10 06:08:00,56.8,53.9,29.70,West,273,2.0,4.0,90,0.00,,,0.00,Wunderground v.1.15,2013-04-10 11:08:00,
2013-04-10 06:14:00,56.5,53.9,29.71,West,273,1.0,2.0,91,0.00,,,0.00,Wunderground v.1.15,2013-04-10 11:14:00,
2013-04-10 06:20:00,56.3,53.7,29.71,West,281,1.0,1.0,91,0.00,,,0.00,Wunderground v.1.15,2013-04-10 11:20:00,
2013-04-10 06:25:00,56.3,53.7,29.72,West,281,1.0,4.0,91,0.00,,,0.00,Wunderground v.1.15,2013-04-10 11:25:00,
2013-04-10 06:30:00,56.2,53.6,29.72,WNW,294,1.0,1.0,91,0.00,,,0.00,Wunderground v.1.15,2013-04-10 11:30:00,
2013-04-10 06:36:00,56.0,53.4,29.72,NW,306,1.0,4.0,91,0.30,,,0.06,Wunderground v.1.15,2013-04-10 11:36:00,
2013-04-10 06:41:00,55.8,53.5,29.72,NW,324,1.0,3.0,92,0.13,,,0.07,Wunderground v.1.15,2013-04-10 11:41:00,
2013-04-10 06:47:00,55.7,53.4,29.72,NW,324,1.0,3.0,92,0.07,,,0.07,Wunderground v.1.15,2013-04-10 11:47:00,
2013-04-10 06:53:00,55.6,53.3,29.73,NW,324,0.0,2.0,92,0.04,,,0.07,Wunderground v.1.15,2013-04-10 11:53:00,
2013-04-10 06:59:00,55.2,52.9,29.75,WSW,257,1.0,9.0,92,0.00,,,0.07,Wunderground v.1.15,2013-04-10 11:59:00,
2013-04-10 07:04:00,54.5,52.2,29.75,SW,230,4.0,9.0,92,0.00,,,0.07,Wunderground v.1.15,2013-04-10 12:04:00,
2013-04-10 07:09:00,53.8,51.5,29.75,NNW,327,5.0,9.0,92,0.00,,,0.07,Wunderground v.1.15,2013-04-10 12:09:00,
2013-04-10 07:15:00,53.5,51.5,29.75,West,280,5.0,5.0,93,0.00,,,0.07,Wunderground v.1.15,2013-04-10 12:15:00,
2013-04-10 07:20:00,53.3,51.3,29.75,NW,307,3.0,3.0,93,0.00,,,0.07,Wunderground v.1.15,2013-04-10 12:20:00,
2013-04-10 07:26:00,53.3,51.3,29.74,West,279,1.0,4.0,93,0.00,,,0.07,Wunderground v.1.15,2013-04-10 12:26:00,
2013-04-10 07:31:00,53.1,51.1,29.74,NW,310,1.0,3.0,93,0.00,,,0.07,Wunderground v.1.15,2013-04-10 12:31:00,
2013-04-10 07:37:00,53.0,51.0,29.74,West,267,2.0,4.0,93,0.00,,,0.07,Wunderground v.1.15,2013-04-10 12:37:00,
2013-04-10 07:42:00,52.9,50.9,29.74,West,267,2.0,2.0,93,0.00,,,0.07,Wunderground v.1.15,2013-04-10 12:42:00,
2013-04-10 07:48:00,52.9,50.9,29.74,West,270,1.0,2.0,93,0.00,,,0.07,Wunderground v.1.15,2013-04-10 12:48:00,
2013-04-10 07:53:00,52.7,50.7,29.74,WSW,256,1.0,3.0,93,0.00,,,0.07,Wunderground v.1.15,2013-04-10 12:53:00,
2013-04-10 07:59:00,52.7,51.0,29.73,West,265,1.0,4.0,94,0.00,,,0.07,Wunderground v.1.15,2013-04-10 12:59:00,
2013-04-10 08:05:00,52.8,51.1,29.74,West,266,0.0,3.0,94,0.00,,,0.07,Wunderground v.1.15,2013-04-10 13:05:00,
2013-04-10 08:11:00,52.7,51.0,29.74,West,266,1.0,1.0,94,0.00,,,0.07,Wunderground v.1.15,2013-04-10 13:11:00,
2013-04-10 08:16:00,52.8,51.1,29.74,West,266,1.0,2.0,94,0.00,,,0.07,Wunderground v.1.15,2013-04-10 13:16:00,
2013-04-10 08:21:00,52.8,51.1,29.74,West,266,1.0,2.0,94,0.00,,,0.07,Wunderground v.1.15,2013-04-10 13:21:00,
2013-04-10 08:27:00,52.8,51.1,29.73,West,266,1.0,3.0,94,0.00,,,0.07,Wunderground v.1.15,2013-04-10 13:27:00,
2013-04-10 08:33:00,53.0,51.3,29.73,West,266,0.0,0.0,94,0.00,,,0.07,Wunderground v.1.15,2013-04-10 13:33:00,
2013-04-10 08:39:00,53.2,51.5,29.73,West,266,0.0,0.0,94,0.00,,,0.07,Wunderground v.1.15,2013-04-10 13:39:00,
2013-04-10 08:44:00,53.1,51.4,29.74,West,266,0.0,0.0,94,0.00,,,0.07,Wunderground v.1.15,2013-04-10 13:44:00,
2013-04-10 08:49:00,53.2,51.5,29.73,West,266,0.0,0.0,94,0.00,,,0.07,Wunderground v.1.15,2013-04-10 13:49:00,
2013-04-10 08:55:00,53.3,51.6,29.73,West,266,0.0,0.0,94,0.00,,,0.07,Wunderground v.1.15,2013-04-10 13:55:00,
2013-04-10 09:00:00,53.8,52.4,29.73,West,266,0.0,0.0,95,0.00,,,0.07,Wunderground v.1.15,2013-04-10 14:00:00,
2013-04-10 09:06:00,53.9,52.2,29.74,West,266,0.0,0.0,94,0.00,,,0.07,Wunderground v.1.15,2013-04-10 14:06:00,
2013-04-10 09:11:00,53.9,52.2,29.74,West,266,0.0,0.0,94,0.00,,,0.07,Wunderground v.1.15,2013-04-10 14:11:00,
2013-04-10 09:17:00,54.0,52.3,29.74,West,266,0.0,0.0,94,0.00,,,0.07,Wunderground v.1.15,2013-04-10 14:17:00,
2013-04-10 09:22:00,54.0,52.3,29.74,West,266,0.0,0.0,94,0.00,,,0.07,Wunderground v.1.15,2013-04-10 14:22:00,
2013-04-10 09:27:00,54.0,52.3,29.73,West,266,0.0,0.0,94,0.00,,,0.07,Wunderground v.1.15,2013-04-10 14:27:00,
2013-04-10 09:33:00,54.1,52.4,29.74,West,266,0.0,0.0,94,0.00,,,0.07,Wunderground v.1.15,2013-04-10 14:33:00,
2013-04-10 09:38:00,54.2,52.5,29.75,West,266,0.0,0.0,94,0.00,,,0.07,Wunderground v.1.15,2013-04-10 14:38:00,
2013-04-10 09:44:00,54.0,52.3,29.74,West,266,0.0,0.0,94,0.00,,,0.07,Wunderground v.1.15,2013-04-10 14:44:00,
2013-04-10 09:49:00,53.9,52.2,29.75,West,266,0.0,2.0,94,0.00,,,0.07,Wunderground v.1.15,2013-04-10 14:49:00,
2013-04-10 09:55:00,54.0,52.3,29.74,West,266,0.0,1.0,94,0.00,,,0.07,Wunderground v.1.15,2013-04-10 14:55:00,
2013-04-10 10:00:00,54.0,52.0,29.77,WNW,282,1.0,4.0,93,0.00,,,0.07,Wunderground v.1.15,2013-04-10 15:00:00,
2013-04-10 10:06:00,53.4,51.4,29.75,SW,215,3.0,8.0,93,0.00,,,0.07,Wunderground v.1.15,2013-04-10 15:06:00,
2013-04-10 10:12:00,53.3,51.3,29.76,WNW,284,2.0,3.0,93,0.00,,,0.07,Wunderground v.1.15,2013-04-10 15:12:00,
2013-04-10 10:17:00,53.3,51.3,29.77,NNW,336,2.0,9.0,93,0.00,,,0.07,Wunderground v.1.15,2013-04-10 15:17:00,
2013-04-10 10:23:00,53.0,51.0,29.75,WNW,294,3.0,5.0,93,0.00,,,0.07,Wunderground v.1.15,2013-04-10 15:23:00,
2013-04-10 10:29:00,52.8,50.5,29.75,North,360,3.0,8.0,92,0.00,,,0.07,Wunderground v.1.15,2013-04-10 15:29:00,
2013-04-10 10:34:00,52.5,50.2,29.76,NNW,334,4.0,5.0,92,0.00,,,0.07,Wunderground v.1.15,2013-04-10 15:34:00,
2013-04-10 10:39:00,52.3,50.0,29.75,NNW,331,3.0,5.0,92,0.00,,,0.07,Wunderground v.1.15,2013-04-10 15:39:00,
2013-04-10 10:44:00,52.6,50.6,29.74,NNE,13,1.0,3.0,93,0.00,,,0.08,Wunderground v.1.15,2013-04-10 15:44:00,
2013-04-10 10:49:00,52.8,50.8,29.75,North,5,1.0,3.0,93,0.00,,,0.08,Wunderground v.1.15,2013-04-10 15:49:00,
2013-04-10 10:55:00,52.5,50.2,29.75,NE,35,2.0,5.0,92,0.00,,,0.08,Wunderground v.1.15,2013-04-10 15:55:00,
2013-04-10 11:01:00,52.3,50.0,29.74,NNW,332,2.0,5.0,92,0.00,,,0.08,Wunderground v.1.15,2013-04-10 16:01:00,
2013-04-10 11:07:00,51.8,49.3,29.76,NW,309,2.0,7.0,91,0.00,,,0.08,Wunderground v.1.15,2013-04-10 16:07:00,
2013-04-10 11:12:00,51.6,49.1,29.74,NW,306,3.0,3.0,91,0.00,,,0.08,Wunderground v.1.15,2013-04-10 16:12:00,
2013-04-10 11:17:00,51.7,49.2,29.74,NNW,330,1.0,3.0,91,0.00,,,0.08,Wunderground v.1.15,2013-04-10 16:17:00,
2013-04-10 11:23:00,51.7,49.2,29.73,NE,46,1.0,5.0,91,0.00,,,0.08,Wunderground v.1.15,2013-04-10 16:23:00,
2013-04-10 11:28:00,51.8,49.3,29.72,NE,34,2.0,5.0,91,0.00,,,0.08,Wunderground v.1.15,2013-04-10 16:28:00,
2013-04-10 11:34:00,52.2,49.7,29.72,NNE,30,1.0,2.0,91,0.00,,,0.08,Wunderground v.1.15,2013-04-10 16:34:00,
2013-04-10 11:39:00,52.8,50.2,29.72,NNE,30,0.0,2.0,91,0.00,,,0.08,Wunderground v.1.15,2013-04-10 16:39:00,
2013-04-10 11:44:00,53.2,50.3,29.72,NNE,31,1.0,2.0,90,0.00,,,0.08,Wunderground v.1.15,2013-04-10 16:44:00,
2013-04-10 11:50:00,53.2,50.0,29.74,NW,319,1.0,3.0,89,0.00,,,0.08,Wunderground v.1.15,2013-04-10 16:50:00,
2013-04-10 11:55:00,53.2,50.0,29.73,WNW,282,2.0,3.0,89,0.00,,,0.08,Wunderground v.1.15,2013-04-10 16:55:00,
2013-04-10 12:00:00,53.2,50.0,29.74,WNW,284,2.0,3.0,89,0.00,,,0.08,Wunderground v.1.15,2013-04-10 17:00:00,
2013-04-10 12:06:00,52.8,49.3,29.74,WNW,288,2.0,3.0,88,0.00,,,0.08,Wunderground v.1.15,2013-04-10 17:06:00,
2013-04-10 12:11:00,52.8,49.3,29.73,WNW,288,1.0,1.0,88,0.00,,,0.08,Wunderground v.1.15,2013-04-10 17:11:00,
2013-04-10 12:16:00,52.5,48.7,29.73,WNW,294,1.0,3.0,87,0.00,,,0.08,Wunderground v.1.15,2013-04-10 17:16:00,
2013-04-10 12:22:00,52.4,48.9,29.73,WNW,296,3.0,3.0,88,0.00,,,0.08,Wunderground v.1.15,2013-04-10 17:22:00,
2013-04-10 12:27:00,52.4,48.9,29.73,WSW,253,2.0,4.0,88,0.00,,,0.08,Wunderground v.1.15,2013-04-10 17:27:00,
2013-04-10 12:32:00,52.0,48.6,29.73,WSW,242,2.0,2.0,88,0.00,,,0.08,Wunderground v.1.15,2013-04-10 17:32:00,
2013-04-10 12:38:00,52.1,49.0,29.72,WSW,242,1.0,2.0,89,0.00,,,0.08,Wunderground v.1.15,2013-04-10 17:38:00,
2013-04-10 12:44:00,52.8,49.3,29.71,WSW,242,0.0,1.0,88,0.00,,,0.08,Wunderground v.1.15,2013-04-10 17:44:00,
2013-04-10 12:49:00,53.3,49.8,29.71,WSW,241,0.0,1.0,88,0.00,,,0.08,Wunderground v.1.15,2013-04-10 17:49:00,
2013-04-10 12:55:00,52.7,48.9,29.72,SW,226,0.0,1.0,87,0.00,,,0.08,Wunderground v.1.15,2013-04-10 17:55:00,
2013-04-10 13:00:00,52.7,48.9,29.72,SW,228,1.0,1.0,87,0.00,,,0.08,Wunderground v.1.15,2013-04-10 18:00:00,
2013-04-10 13:05:00,52.3,48.2,29.72,WSW,258,3.0,7.0,86,0.00,,,0.08,Wunderground v.1.15,2013-04-10 18:05:00,
2013-04-10 13:11:00,51.8,48.1,29.72,West,263,3.0,3.0,87,0.00,,,0.08,Wunderground v.1.15,2013-04-10 18:11:00,
2013-04-10 13:16:00,52.1,48.7,29.72,West,265,1.0,3.0,88,0.00,,,0.08,Wunderground v.1.15,2013-04-10 18:16:00,
2013-04-10 13:22:00,52.5,48.7,29.72,WNW,292,1.0,2.0,87,0.00,,,0.08,Wunderground v.1.15,2013-04-10 18:22:00,
2013-04-10 13:28:00,52.1,48.0,29.72,WNW,291,2.0,5.0,86,0.00,,,0.08,Wunderground v.1.15,2013-04-10 18:28:00,
2013-04-10 13:33:00,51.4,47.4,29.71,WNW,288,3.0,5.0,86,0.00,,,0.08,Wunderground v.1.15,2013-04-10 18:33:00,
2013-04-10 13:38:00,51.2,47.5,29.71,West,269,3.0,5.0,87,0.00,,,0.08,Wunderground v.1.15,2013-04-10 18:38:00,
2013-04-10 13:44:00,50.9,47.2,29.71,WNW,288,2.0,5.0,87,0.00,,,0.08,Wunderground v.1.15,2013-04-10 18:44:00,
2013-04-10 13:49:00,50.4,46.1,29.71,WNW,296,2.0,5.0,85,0.00,,,0.08,Wunderground v.1.15,2013-04-10 18:49:00,
2013-04-10 13:54:00,50.0,46.0,29.71,NW,304,3.0,3.0,86,0.00,,,0.08,Wunderground v.1.15,2013-04-10 18:54:00,
2013-04-10 13:59:00,49.9,45.9,29.70,WNW,301,2.0,3.0,86,0.00,,,0.08,Wunderground v.1.15,2013-04-10 18:59:00,
2013-04-10 14:05:00,49.5,45.5,29.71,West,261,2.0,5.0,86,0.00,,,0.08,Wunderground v.1.15,2013-04-10 19:05:00,
2013-04-10 14:11:00,48.8,44.8,29.71,WSW,250,3.0,3.0,86,0.00,,,0.08,Wunderground v.1.15,2013-04-10 19:11:00,
2013-04-10 14:16:00,48.3,44.3,29.70,SW,229,2.0,4.0,86,0.00,,,0.08,Wunderground v.1.15,2013-04-10 19:16:00,
2013-04-10 14:21:00,47.9,44.2,29.70,West,271,2.0,2.0,87,0.00,,,0.08,Wunderground v.1.15,2013-04-10 19:21:00,
2013-04-10 14:27:00,47.9,44.5,29.71,West,271,2.0,4.0,88,0.00,,,0.08,Wunderground v.1.15,2013-04-10 19:27:00,
2013-04-10 14:33:00,47.8,44.4,29.72,West,277,4.0,6.0,88,0.00,,,0.08,Wunderground v.1.15,2013-04-10 19:33:00,
2013-04-10 14:38:00,47.6,44.2,29.72,West,265,5.0,8.0,88,0.00,,,0.08,Wunderground v.1.15,2013-04-10 19:38:00,
2013-04-10 14:44:00,47.4,44.0,29.71,West,277,5.0,10.0,88,0.00,,,0.08,Wunderground v.1.15,2013-04-10 19:44:00,
2013-04-10 14:50:00,46.3,42.6,29.71,NW,304,6.0,6.0,87,0.00,,,0.08,Wunderground v.1.15,2013-04-10 19:50:00,
2013-04-10 14:56:00,45.4,42.1,29.71,West,271,6.0,6.0,88,0.00,,,0.08,Wunderground v.1.15,2013-04-10 19:56:00,
2013-04-10 15:01:00,44.9,41.9,29.70,West,259,5.0,9.0,89,0.00,,,0.08,Wunderground v.1.15,2013-04-10 20:01:00,
2013-04-10 15:07:00,44.5,41.5,29.70,WNW,297,6.0,9.0,89,0.00,,,0.08,Wunderground v.1.15,2013-04-10 20:07:00,
2013-04-10 15:12:00,44.1,41.1,29.69,NNW,332,5.0,6.0,89,0.00,,,0.08,Wunderground v.1.15,2013-04-10 20:12:00,
2013-04-10 15:18:00,44.2,41.2,29.69,West,275,4.0,6.0,89,0.00,,,0.08,Wunderground v.1.15,2013-04-10 20:18:00,
2013-04-10 15:23:00,44.1,41.1,29.70,NNW,337,3.0,4.0,89,0.00,,,0.08,Wunderground v.1.15,2013-04-10 20:23:00,
2013-04-10 15:29:00,44.2,41.2,29.70,WSW,248,2.0,6.0,89,0.00,,,0.08,Wunderground v.1.15,2013-04-10 20:29:00,
2013-04-10 15:34:00,44.0,41.0,29.69,WNW,285,3.0,6.0,89,0.00,,,0.08,Wunderground v.1.15,2013-04-10 20:34:00,
2013-04-10 15:39:00,43.6,40.6,29.67,NW,326,4.0,6.0,89,0.00,,,0.08,Wunderground v.1.15,2013-04-10 20:39:00,
2013-04-10 15:45:00,43.5,40.5,29.67,NW,306,4.0,7.0,89,0.00,,,0.08,Wunderground v.1.15,2013-04-10 20:45:00,
2013-04-10 15:50:00,43.5,40.5,29.66,West,267,3.0,3.0,89,0.00,,,0.08,Wunderground v.1.15,2013-04-10 20:50:00,
2013-04-10 15:55:00,43.3,40.3,29.68,West,273,3.0,6.0,89,0.00,,,0.08,Wunderground v.1.15,2013-04-10 20:55:00,
2013-04-10 16:01:00,43.0,40.0,29.71,SW,229,5.0,7.0,89,0.00,,,0.08,Wunderground v.1.15,2013-04-10 21:01:00,
2013-04-10 16:06:00,42.7,40.0,29.69,West,273,7.0,12.0,90,0.00,,,0.08,Wunderground v.1.15,2013-04-10 21:06:00,
2013-04-10 16:11:00,42.3,39.6,29.68,North,5,7.0,8.0,90,0.00,,,0.08,Wunderground v.1.15,2013-04-10 21:11:00,
2013-04-10 16:17:00,42.1,39.7,29.71,West,273,6.0,10.0,91,0.67,,,0.12,Wunderground v.1.15,2013-04-10 21:17:00,
2013-04-10 16:23:00,41.5,39.1,29.69,WNW,290,6.0,16.0,91,0.11,,,0.13,Wunderground v.1.15,2013-04-10 21:23:00,
2013-04-10 16:28:00,41.3,39.2,29.69,West,259,4.0,16.0,92,0.10,,,0.13,Wunderground v.1.15,2013-04-10 21:28:00,
2013-04-10 16:33:00,40.9,38.8,29.69,West,259,4.0,9.0,92,0.10,,,0.14,Wunderground v.1.15,2013-04-10 21:33:00,
2013-04-10 16:38:00,40.7,38.6,29.70,SW,215,5.0,9.0,92,0.97,,,0.22,Wunderground v.1.15,2013-04-10 21:38:00,
2013-04-10 16:44:00,40.4,38.5,29.75,WSW,246,6.0,17.0,93,2.70,,,0.45,Wunderground v.1.15,2013-04-10 21:44:00,
2013-04-10 16:49:00,39.8,37.9,29.73,West,281,8.0,17.0,93,0.51,,,0.52,Wunderground v.1.15,2013-04-10 21:49:00,
2013-04-10 16:55:00,39.8,38.2,29.70,WNW,300,2.0,5.0,94,0.17,,,0.54,Wunderground v.1.15,2013-04-10 21:55:00,
2013-04-10 17:01:00,39.7,38.1,29.72,SW,235,1.0,6.0,94,0.06,,,0.54,Wunderground v.1.15,2013-04-10 22:01:00,
2013-04-10 17:06:00,39.8,38.2,29.74,SSW,213,3.0,7.0,94,0.06,,,0.55,Wunderground v.1.15,2013-04-10 22:06:00,
2013-04-10 17:12:00,39.2,37.6,29.76,West,264,6.0,6.0,94,0.08,,,0.56,Wunderground v.1.15,2013-04-10 22:12:00,
2013-04-10 17:18:00,39.0,37.4,29.76,WSW,237,6.0,8.0,94,0.18,,,0.59,Wunderground v.1.15,2013-04-10 22:18:00,
2013-04-10 17:24:00,38.8,37.2,29.75,WSW,238,6.0,11.0,94,0.11,,,0.60,Wunderground v.1.15,2013-04-10 22:24:00,
2013-04-10 17:30:00,38.8,37.5,29.74,NNW,333,5.0,6.0,95,0.13,,,0.61,Wunderground v.1.15,2013-04-10 22:30:00,
2013-04-10 17:35:00,38.8,37.5,29.71,North,355,3.0,6.0,95,0.13,,,0.62,Wunderground v.1.15,2013-04-10 22:35:00,
2013-04-10 17:41:00,38.9,37.6,29.70,NNW,345,1.0,2.0,95,0.23,,,0.64,Wunderground v.1.15,2013-04-10 22:41:00,
2013-04-10 17:46:00,38.9,37.6,29.69,North,360,2.0,6.0,95,0.09,,,0.65,Wunderground v.1.15,2013-04-10 22:46:00,
2013-04-10 17:52:00,38.9,37.6,29.69,WNW,300,3.0,5.0,95,0.17,,,0.66,Wunderground v.1.15,2013-04-10 22:52:00,
2013-04-10 17:57:00,38.8,37.5,29.70,NNW,329,3.0,6.0,95,0.07,,,0.66,Wunderground v.1.15,2013-04-10 22:57:00,
2013-04-10 18:02:00,38.7,37.4,29.70,NNW,338,1.0,3.0,95,0.04,,,0.66,Wunderground v.1.15,2013-04-10 23:02:00,
2013-04-10 18:08:00,38.8,37.5,29.71,NNW,338,0.0,3.0,95,0.00,,,0.66,Wunderground v.1.15,2013-04-10 23:08:00,
2013-04-10 18:13:00,38.5,37.2,29.72,SE,131,2.0,9.0,95,0.00,,,0.66,Wunderground v.1.15,2013-04-10 23:13:00,
2013-04-10 18:18:00,38.4,37.1,29.71,SE,132,5.0,9.0,95,0.00,,,0.66,Wunderground v.1.15,2013-04-10 23:18:00,
2013-04-10 18:24:00,38.5,37.2,29.70,ESE,109,4.0,5.0,95,0.00,,,0.66,Wunderground v.1.15,2013-04-10 23:24:00,
2013-04-10 18:29:00,38.8,37.5,29.72,WNW,282,2.0,5.0,95,0.00,,,0.66,Wunderground v.1.15,2013-04-10 23:29:00,
2013-04-10 18:35:00,39.0,38.0,29.71,NW,312,3.0,9.0,96,0.15,,,0.68,Wunderground v.1.15,2013-04-10 23:35:00,
2013-04-10 18:40:00,39.0,38.0,29.70,West,265,4.0,4.0,96,0.24,,,0.70,Wunderground v.1.15,2013-04-10 23:40:00,
2013-04-10 18:45:00,39.1,38.1,29.71,SSW,209,3.0,4.0,96,0.10,,,0.71,Wunderground v.1.15,2013-04-10 23:45:00,
2013-04-10 18:50:00,38.8,37.8,29.73,SW,235,3.0,4.0,96,0.10,,,0.71,Wunderground v.1.15,2013-04-10 23:50:00,
2013-04-10 18:56:00,38.9,37.9,29.72,WNW,283,4.0,6.0,96,0.05,,,0.71,Wunderground v.1.15,2013-04-10 23:56:00,
2013-04-10 19:02:00,38.8,37.8,29.74,WSW,257,5.0,15.0,96,0.04,,,0.71,Wunderground v.1.15,2013-04-11 00:02:00,
2013-04-10 19:07:00,38.8,37.8,29.75,SW,234,7.0,15.0,96,0.00,,,0.72,Wunderground v.1.15,2013-04-11 00:07:00,
2013-04-10 19:13:00,38.8,37.8,29.76,WSW,257,7.0,11.0,96,0.00,,,0.72,Wunderground v.1.15,2013-04-11 00:13:00,
2013-04-10 19:19:00,38.9,37.9,29.73,SW,236,6.0,11.0,96,0.07,,,0.73,Wunderground v.1.15,2013-04-11 00:19:00,
2013-04-10 19:24:00,38.9,37.9,29.74,SW,221,4.0,5.0,96,0.08,,,0.74,Wunderground v.1.15,2013-04-11 00:24:00,
2013-04-10 19:30:00,38.8,37.8,29.73,WNW,291,4.0,5.0,96,0.07,,,0.74,Wunderground v.1.15,2013-04-11 00:30:00,
2013-04-10 19:35:00,38.8,37.8,29.72,NW,306,5.0,8.0,96,0.04,,,0.74,Wunderground v.1.15,2013-04-11 00:35:00,
2013-04-10 19:40:00,38.9,37.9,29.72,NW,322,4.0,4.0,96,0.00,,,0.74,Wunderground v.1.15,2013-04-11 00:40:00,
2013-04-10 19:46:00,38.7,37.7,29.72,WNW,300,4.0,6.0,96,0.00,,,0.74,Wunderground v.1.15,2013-04-11 00:46:00,
2013-04-10 19:52:00,38.7,37.7,29.72,WNW,288,4.0,6.0,96,0.00,,,0.74,Wunderground v.1.15,2013-04-11 00:52:00,
2013-04-10 19:57:00,38.6,37.6,29.73,West,276,4.0,10.0,96,0.00,,,0.74,Wunderground v.1.15,2013-04-11 00:57:00,
2013-04-10 20:03:00,38.5,37.5,29.72,NW,325,4.0,5.0,96,0.00,,,0.74,Wunderground v.1.15,2013-04-11 01:03:00,
2013-04-10 20:08:00,38.4,37.4,29.73,WSW,257,4.0,8.0,96,0.00,,,0.74,Wunderground v.1.15,2013-04-11 01:08:00,
2013-04-10 20:13:00,38.2,37.2,29.74,NW,312,5.0,12.0,96,0.00,,,0.74,Wunderground v.1.15,2013-04-11 01:13:00,
2013-04-10 20:19:00,38.1,37.1,29.74,West,265,6.0,12.0,96,0.00,,,0.74,Wunderground v.1.15,2013-04-11 01:19:00,
2013-04-10 20:25:00,38.1,37.1,29.74,West,274,5.0,7.0,96,0.00,,,0.74,Wunderground v.1.15,2013-04-11 01:25:00,
2013-04-10 20:31:00,37.9,36.9,29.75,West,275,5.0,12.0,96,0.00,,,0.74,Wunderground v.1.15,2013-04-11 01:31:00,
2013-04-10 20:36:00,37.8,36.8,29.75,SW,234,7.0,13.0,96,0.00,,,0.74,Wunderground v.1.15,2013-04-11 01:36:00,
2013-04-10 20:41:00,37.8,36.8,29.74,WSW,254,7.0,11.0,96,0.00,,,0.74,Wunderground v.1.15,2013-04-11 01:41:00,
2013-04-10 20:47:00,37.7,36.7,29.74,West,274,6.0,11.0,96,0.00,,,0.74,Wunderground v.1.15,2013-04-11 01:47:00,
2013-04-10 20:53:00,37.4,36.4,29.75,WNW,284,6.0,11.0,96,0.00,,,0.74,Wunderground v.1.15,2013-04-11 01:53:00,
2013-04-10 20:59:00,37.2,36.2,29.76,WNW,294,7.0,13.0,96,0.00,,,0.74,Wunderground v.1.15,2013-04-11 01:59:00,
2013-04-10 21:04:00,37.1,36.1,29.76,NW,310,6.0,7.0,96,0.00,,,0.74,Wunderground v.1.15,2013-04-11 02:04:00,
2013-04-10 21:09:00,37.0,36.0,29.76,WSW,252,6.0,8.0,96,0.00,,,0.74,Wunderground v.1.15,2013-04-11 02:09:00,
2013-04-10 21:14:00,36.9,35.9,29.77,NW,304,6.0,11.0,96,0.00,,,0.74,Wunderground v.1.15,2013-04-11 02:14:00,
2013-04-10 21:20:00,36.8,35.8,29.77,West,262,5.0,5.0,96,0.00,,,0.74,Wunderground v.1.15,2013-04-11 02:20:00,
2013-04-10 21:25:00,36.7,35.7,29.78,North,360,4.0,8.0,96,0.00,,,0.74,Wunderground v.1.15,2013-04-11 02:25:00,
2013-04-10 21:31:00,36.7,35.7,29.78,West,270,3.0,4.0,96,0.00,,,0.74,Wunderground v.1.15,2013-04-11 02:31:00,
2013-04-10 21:37:00,36.7,35.7,29.78,WNW,297,3.0,7.0,96,0.00,,,0.74,Wunderground v.1.15,2013-04-11 02:37:00,
2013-04-10 21:42:00,36.7,35.7,29.78,NW,319,3.0,3.0,96,0.00,,,0.74,Wunderground v.1.15,2013-04-11 02:42:00,
2013-04-10 21:47:00,36.7,35.7,29.78,NW,312,3.0,6.0,96,0.00,,,0.74,Wunderground v.1.15,2013-04-11 02:47:00,
2013-04-10 21:53:00,36.7,35.7,29.78,WNW,298,3.0,8.0,96,0.00,,,0.74,Wunderground v.1.15,2013-04-11 02:53:00,
2013-04-10 21:58:00,36.9,35.9,29.79,WNW,301,2.0,8.0,96,0.00,,,0.74,Wunderground v.1.15,2013-04-11 02:58:00,
2013-04-10 22:03:00,36.9,35.9,29.79,WNW,301,2.0,4.0,96,0.00,,,0.74,Wunderground v.1.15,2013-04-11 03:03:00,
2013-04-10 22:08:00,36.9,35.9,29.79,WNW,296,2.0,4.0,96,0.00,,,0.74,Wunderground v.1.15,2013-04-11 03:08:00,
2013-04-10 22:14:00,36.9,35.9,29.79,West,259,2.0,5.0,96,0.00,,,0.74,Wunderground v.1.15,2013-04-11 03:14:00,
2013-04-10 22:19:00,36.8,35.8,29.79,WSW,244,3.0,6.0,96,0.00,,,0.74,Wunderground v.1.15,2013-04-11 03:19:00,
2013-04-10 22:25:00,36.6,35.6,29.80,WNW,296,3.0,6.0,96,0.00,,,0.74,Wunderground v.1.15,2013-04-11 03:25:00,
2013-04-10 22:31:00,36.5,35.5,29.80,WNW,291,4.0,8.0,96,0.00,,,0.74,Wunderground v.1.15,2013-04-11 03:31:00,
2013-04-10 22:36:00,36.5,35.5,29.80,West,281,5.0,8.0,96,0.00,,,0.74,Wunderground v.1.15,2013-04-11 03:36:00,
2013-04-10 22:42:00,36.4,35.4,29.80,West,278,5.0,7.0,96,0.00,,,0.74,Wunderground v.1.15,2013-04-11 03:42:00,
2013-04-10 22:47:00,36.4,35.4,29.80,West,269,5.0,9.0,96,0.00,,,0.74,Wunderground v.1.15,2013-04-11 03:47:00,
2013-04-10 22:53:00,36.5,35.5,29.81,WNW,286,3.0,3.0,96,0.00,,,0.74,Wunderground v.1.15,2013-04-11 03:53:00,
2013-04-10 22:59:00,36.5,35.5,29.81,WSW,246,3.0,16.0,96,0.00,,,0.74,Wunderground v.1.15,2013-04-11 03:59:00,
2013-04-10 23:00:00,36.4,35.4,29.81,WNW,288,4.0,10.0,96,0.00,,,0.74,Wunderground v.1.15,2013-04-11 04:00:00,
2013-04-10 23:02:00,36.4,35.4,29.81,WNW,289,4.0,10.0,96,0.00,,,0.74,Wunderground v.1.15,2013-04-11 04:02:00,
2013-04-10 23:03:00,36.4,35.4,29.81,West,277,5.0,10.0,96,0.00,,,0.74,Wunderground v.1.15,2013-04-11 04:03:00,
2013-04-10 23:04:00,36.4,35.4,29.81,West,275,5.0,10.0,96,0.00,,,0.74,Wunderground v.1.15,2013-04-11 04:04:00,
2013-04-10 23:09:00,36.4,35.4,29.81,WSW,250,4.0,10.0,96,0.00,,,0.74,Wunderground v.1.15,2013-04-11 04:09:00,
2013-04-10 23:15:00,36.4,35.4,29.81,WNW,294,4.0,7.0,96,0.00,,,0.74,Wunderground v.1.15,2013-04-11 04:15:00,
2013-04-10 23:20:00,36.3,35.3,29.81,WSW,242,4.0,4.0,96,0.00,,,0.74,Wunderground v.1.15,2013-04-11 04:20:00,
2013-04-10 23:26:00,36.2,35.2,29.82,North,355,4.0,6.0,96,0.00,,,0.74,Wunderground v.1.15,2013-04-11 04:26:00,
2013-04-10 23:32:00,36.2,35.2,29.81,WSW,242,3.0,6.0,96,0.00,,,0.74,Wunderground v.1.15,2013-04-11 04:32:00,
2013-04-10 23:37:00,36.2,35.2,29.82,WSW,254,3.0,7.0,96,0.00,,,0.74,Wunderground v.1.15,2013-04-11 04:37:00,
2013-04-10 23:43:00,36.1,35.1,29.82,West,271,5.0,6.0,96,0.00,,,0.74,Wunderground v.1.15,2013-04-11 04:43:00,
2013-04-10 23:48:00,36.1,35.1,29.81,SSW,213,5.0,7.0,96,0.00,,,0.74,Wunderground v.1.15,2013-04-11 04:48:00,
2013-04-10 23:54:00,36.0,35.0,29.82,West,273,5.0,9.0,96,0.00,,,0.74,Wunderground v.1.15,2013-04-11 04:54:00,
2013-04-10 23:59:00,35.9,34.9,29.82,WNW,290,5.0,9.0,96,0.00,,,0.74,Wunderground v.1.15,2013-04-11 04:59:00,